Mount Hamill, Iowa
Current Conditions -  °F | °C
As of 7:15 AM on Thursday 30 Oct 2014 (Local Time) from KFSW Reporting Station
Broken Clouds Broken Clouds  
Wind Chill: 40°   Ceiling: 11000
Heat Index: 45°   Visibility: 10mi
Dew Point: 37°   Wind: 8mph
Humidity: 76%   Direction: 160°SSE
Pressure: 30.1"   Gusts: NA
Location:  40.6822°N, 91.6042°W
Report Text: KFSW 301215Z AUTO 16007KT 10SM BKN110 07/03 A3010 RMK AO2
Loading
Personal Weather Stations






























Interactive Weather Map
Tropical Storm Tracking
New forecast layout! Learn more

10-Day Weather Forecast

Advertisements
Track Severe Weather on mobile